Melbourne, FL (32901)

2:12 AM EST on February 10, 2016 (GMT -0500)
Timber Ridge | | Change Station
CLOSE
Current Station
Personal Weather Station
Location: West Melbourne, FL
Elevation: 33 ft
Nearby Weather Stations
Active Advisory: Wind Chill Advisory

Elev 33 ft 28.07 °N, 80.65 °W | Updated 7 minutes ago

Overcast
Overcast
51.4 °F
Feels Like 51.4 °F
N
1.0
Wind Variable Wind from WNW
Gusts 12.0 mph

Today
High -- | Low -- °F
--% Chance of Precip.
Yesterday
High -- | Low -- °F
Precip. -- in
Pressure 30.11 in
Visibility 10.0 miles
Clouds Overcast 5500 ft
Dew Point 38 °F
Humidity 61%
Rainfall 0.00 in
Snow Depth Not available.
7:04 AM 6:09 PM
Waxing Crescent, 4% visible
METAR KMLB 100653Z AUTO 29015G20KT 10SM OVC055 11/03 A3011 RMK AO2 SLP194 T01060033
Pressure 30.11 in
Visibility 10.0 miles
Clouds Overcast 5500 ft
Dew Point 38 °F
Humidity 61%
Rainfall 0.00 in
Snow Depth Not available.
7:04 AM 6:09 PM
Waxing Crescent, 4% visible
METAR KMLB 100653Z AUTO 29015G20KT 10SM OVC055 11/03 A3011 RMK AO2 SLP194 T01060033

10-Day Weather Forecast

Almanac

Astronomy

Feb. 10, 2016 Rise Set
Actual Time
Civil Twilight
Nautical Twilight
Astronomical Twilight
Moon
Length of Visible Light
Length of Day
Tomorrow will be .
, % of the Moon is Illuminated

Today's Extremes

State Highs State Lows

Community

WunderPhotos

Upload Photos

1,891,826 photos uploaded!

WunderBlog® & News

Nearby

Air Quality

  Air Quality AQ Index Pollutant
Not available.

Snow Depth

Station Depth Elevation

Earthquake Activity

City Distance Mag. Time & Date
Minimum magnitude displayed is 2.5.

Coastal Water Temperatures

Place Temperature

Stations

Nearby Weather Stations

Station Location Temp. Windchill Dew Point Humidity Wind Precip. Elev Updated Type
                   

Watches & Warnings

Wind Chill Advisory
Issued: 2:49 PM EST Feb. 9, 2016 – National Weather Service

... Wind Chill Advisory in effect from 4 am to 9 am EST
Wednesday...

The National Weather Service in Melbourne has issued a Wind Chill
Advisory... which is in effect from 4 am to 9 am EST Wednesday.

The combination of cold temperatures and a northwest wind of 10 to
15 mph will produce a wind chill late tonight and early Wednesday.
The coldest wind chill values will range from the upper 20s across
North Lake and Volusia counties to the lower 30s over Metro
Orlando... Osceola and Brevard counties.

Precautionary/preparedness actions...

A Wind Chill Advisory means that cold air and wind will combine
to generate low wind chills. Keeping warm will be a priority. Cold
weather episodes often bring a threat of house fires due to
improper use of space heaters. Keep flammable materials such as
blankets... pillows and curtains away from heating elements at all
times.



Kelly